Terminal Aerodrome Forecast
Issued by NWS Albany, NY

Home | Current Version | Previous Version | Text Only | Print | Product List | Glossary On
Versions: 1 2 3 4 5 6 7 8 9 10 11 12 13 14 15 16 17 18 19 20 21 22
000
FTUS41 KALY 261133
TAFPOU
TAF
KPOU 261133Z 2612/2712 25003KT P6SM SKC
     FM261500 26008KT P6SM SCT070
     FM261800 25009KT P6SM BKN070
     FM262300 23007KT P6SM SCT070
     FM270000 VRB03KT P6SM FEW070
      AMD NOT SKED=

USA.gov is the U.S. government's official web portal to all federal, state and local government web resources and services.